aviador You're here:

KCVW Decoded Metar

in
Report Time2017-03-28 06:05:00
UTC Time2017-03-28 06:16:42
Flight Rules vfr VFR
Wind180° at 11 kt
W.Rank180° ranks 2
Current wind is above 180° avg. (8.8)
Visibility9999 m
Phenomena:N/A
Clouds:Scattered 008 Hf
Scattered 026 Hf
Broken 033 Hf
Expected CloudBase > 400 ft AGL from Temp-Dew spread
Ceiling3,300 ft
Temp23°C
Dew Point22°C (94% RH)
QNH1013 hPa
Raw Report
KCVW 280605Z AUTO 18011KT 7SM SCT008 SCT026 BKN033 23/22 A2990 RMK
A01=

Extra information for KCVW:More info

Social comments